Time;durP1;ratioP1;P1;durP2;ratioP2;P2;SDS_P1;SDS_P2;PMS_P1;PMS_P2;Temp;Humidity;BMP_temperature;BMP_pressure;BME280_temperature;BME280_humidity;BME280_pressure;Samples;Min_cycle;Max_cycle;Signal;HPM_P1;HPM_P2
2022/07/26 00:01:47;;;;;;;2.40;2.20;;;22.90;99.90;;;;;;10624706;27;20220;-90
2022/07/26 00:06:50;;;;;;;2.50;2.30;;;22.90;99.90;;;;;;10606696;27;20226;-89
2022/07/26 00:11:52;;;;;;;2.67;2.47;;;22.90;99.90;;;;;;10624262;28;20265;-90
2022/07/26 00:16:55;;;;;;;2.95;2.35;;;22.80;99.90;;;;;;10632302;27;20292;-89
2022/07/26 00:27:19;;;;;;;2.33;2.13;;;22.80;99.90;;;;;;10632757;27;20209;-90
2022/07/26 00:32:21;;;;;;;2.50;2.30;;;22.80;99.90;;;;;;10632523;27;20228;-89
2022/07/26 00:37:24;;;;;;;2.63;2.22;;;22.80;99.90;;;;;;10632388;27;20241;-88
2022/07/26 00:42:27;;;;;;;2.40;2.20;;;22.80;99.90;;;;;;10614548;27;20714;-89
2022/07/26 00:47:30;;;;;;;2.30;2.10;;;22.80;99.90;;;;;;10613417;27;20204;-89
2022/07/26 00:52:33;;;;;;;4.32;2.65;;;22.80;99.90;;;;;;10614030;27;20246;-89
2022/07/26 00:57:36;;;;;;;2.75;2.38;;;22.80;99.90;;;;;;10632053;27;20656;-89
2022/07/26 01:02:39;;;;;;;2.20;2.00;;;22.70;99.90;;;;;;10632165;27;20553;-89
2022/07/26 01:07:43;;;;;;;2.22;2.05;;;22.70;99.90;;;;;;10631544;27;20252;-89
2022/07/26 01:12:45;;;;;;;2.40;2.20;;;22.70;99.90;;;;;;10631170;27;20242;-89
2022/07/26 01:17:48;;;;;;;2.47;2.28;;;22.60;99.90;;;;;;10594520;27;20249;-89
2022/07/26 01:22:51;;;;;;;2.50;2.30;;;22.70;99.90;;;;;;10612739;27;20587;-89
2022/07/26 01:27:53;;;;;;;2.38;2.17;;;22.70;99.90;;;;;;10631375;27;20258;-89
2022/07/26 01:32:56;;;;;;;2.65;2.45;;;22.70;99.90;;;;;;10587603;28;20637;-89
2022/07/26 01:37:58;;;;;;;2.33;2.13;;;22.60;99.90;;;;;;10588891;28;20561;-90
2022/07/26 01:43:01;;;;;;;2.50;2.30;;;22.70;99.90;;;;;;10585398;28;20197;-89
2022/07/26 01:48:04;;;;;;;2.30;2.10;;;22.40;99.90;;;;;;10585125;28;20222;-87
2022/07/26 01:53:06;;;;;;;2.28;2.10;;;22.10;99.90;;;;;;10585102;28;20216;-88
2022/07/26 01:58:09;;;;;;;2.72;2.53;;;22.20;99.90;;;;;;10586553;28;20215;-88
2022/07/26 02:03:11;;;;;;;2.60;2.40;;;22.40;99.90;;;;;;10584294;28;20258;-88
2022/07/26 02:08:14;;;;;;;4.95;2.95;;;22.50;99.90;;;;;;10585805;28;20503;-88
2022/07/26 02:13:18;;;;;;;2.40;2.20;;;22.50;99.90;;;;;;10584103;28;20242;-89
2022/07/26 02:18:20;;;;;;;2.83;2.58;;;22.50;99.90;;;;;;10585226;28;20189;-88
2022/07/26 02:23:24;;;;;;;11.25;3.65;;;22.50;99.90;;;;;;10583682;28;20570;-88
2022/07/26 02:28:27;;;;;;;3.42;2.38;;;22.50;99.90;;;;;;10584708;28;20192;-89
2022/07/26 02:33:29;;;;;;;5.38;4.72;;;22.00;99.90;;;;;;10614269;27;20593;-89
2022/07/26 02:38:32;;;;;;;3.90;3.60;;;21.80;99.90;;;;;;10626445;27;20193;-89
2022/07/26 02:43:35;;;;;;;5.72;4.15;;;;;;;;;;10627019;27;20192;-88
2022/07/26 02:48:37;;;;;;;8.18;7.35;;;22.00;99.90;;;;;;10607979;27;20212;-88
2022/07/26 02:53:40;;;;;;;3.47;3.17;;;21.90;99.90;;;;;;10608110;27;20220;-88
2022/07/26 02:58:42;;;;;;;3.95;3.55;;;21.90;99.90;;;;;;10590451;27;20208;-88
2022/07/26 03:03:45;;;;;;;10.15;8.45;;;21.90;99.90;;;;;;10607448;27;20230;-88
2022/07/26 03:08:53;;;;;;;9.02;8.13;;;21.90;99.90;;;;;;10607113;27;20208;-88
2022/07/26 03:13:55;;;;;;;12.43;8.60;;;21.90;99.90;;;;;;10625334;27;20242;-89
2022/07/26 03:19:00;;;;;;;12.93;9.98;;;21.80;99.90;;;;;;10606854;27;20225;-88
2022/07/26 03:24:03;;;;;;;10.23;9.15;;;21.70;99.90;;;;;;10606196;27;20204;-89
2022/07/26 03:29:05;;;;;;;5.13;4.65;;;21.70;99.90;;;;;;10624705;27;20222;-89
2022/07/26 03:34:09;;;;;;;11.40;8.48;;;21.60;99.90;;;;;;10605619;27;20228;-90
2022/07/26 03:39:12;;;;;;;5.32;4.82;;;21.70;99.90;;;;;;10606736;27;20264;-89
2022/07/26 03:44:15;;;;;;;8.15;7.35;;;21.90;99.90;;;;;;10624527;27;20226;-89
2022/07/26 03:49:17;;;;;;;7.95;6.38;;;21.90;99.90;;;;;;10605371;27;20230;-89
2022/07/26 03:54:20;;;;;;;7.30;5.93;;;22.00;99.90;;;;;;10623984;27;20561;-89
2022/07/26 03:59:24;;;;;;;7.53;5.97;;;22.10;99.90;;;;;;10623861;27;20189;-89
2022/07/26 04:04:26;;;;;;;7.70;6.97;;;21.20;99.90;;;;;;10604997;27;20578;-90
2022/07/26 04:09:30;;;;;;;6.25;5.65;;;20.80;99.90;;;;;;10623010;27;20200;-90
2022/07/26 04:14:33;;;;;;;9.95;7.20;;;19.90;99.90;;;;;;10623181;28;20261;-91
2022/07/26 04:19:35;;;;;;;6.05;5.55;;;20.00;99.90;;;;;;10604280;28;20208;-91
2022/07/26 04:24:41;;;;;;;11.80;8.82;;;20.60;99.90;;;;;;10605484;28;20226;-92
2022/07/26 04:29:43;;;;;;;11.15;8.23;;;20.70;99.90;;;;;;10604787;28;20200;-90
2022/07/26 04:34:46;;;;;;;5.85;5.35;;;20.30;99.90;;;;;;10622691;28;20269;-90
2022/07/26 04:39:48;;;;;;;11.45;7.05;;;20.50;99.90;;;;;;10622650;28;20261;-90
2022/07/26 04:44:56;;;;;;;6.97;6.28;;;20.80;99.90;;;;;;10604252;28;20220;-90
2022/07/26 04:49:59;;;;;;;5.63;5.13;;;21.20;99.90;;;;;;10622561;28;20249;-90
2022/07/26 04:55:01;;;;;;;5.65;5.15;;;21.50;99.90;;;;;;10604308;28;20220;-90
2022/07/26 05:00:06;;;;;;;6.93;6.22;;;21.70;99.90;;;;;;10605769;27;20557;-90
2022/07/26 05:05:25;;;;;;;8.93;6.45;;;21.50;99.90;;;;;;10629945;27;20584;-91
2022/07/26 05:10:31;;;;;;;7.35;6.60;;;21.50;99.90;;;;;;10630175;27;20209;-90
2022/07/26 05:15:35;;;;;;;5.57;5.07;;;21.60;99.90;;;;;;10610978;27;20224;-91
2022/07/26 05:20:38;;;;;;;5.45;4.97;;;21.70;99.90;;;;;;10629551;27;20580;-90
2022/07/26 05:25:41;;;;;;;5.80;5.28;;;21.80;99.90;;;;;;10629676;27;20189;-91
2022/07/26 05:30:43;;;;;;;5.97;5.43;;;21.80;99.90;;;;;;10593684;27;20257;-90
2022/07/26 05:35:46;;;;;;;7.43;6.63;;;21.80;99.90;;;;;;10628910;27;20216;-90
2022/07/26 05:40:48;;;;;;;9.10;8.20;;;22.10;99.90;;;;;;10629102;27;20197;-90
2022/07/26 05:45:53;;;;;;;6.90;6.20;;;21.50;99.90;;;;;;10628908;27;20193;-90
2022/07/26 05:50:58;;;;;;;5.72;5.22;;;21.50;99.90;;;;;;10628619;27;20196;-90
2022/07/26 05:56:01;;;;;;;7.78;5.85;;;21.80;99.90;;;;;;10628322;27;20599;-90
2022/07/26 06:01:04;;;;;;;8.27;5.90;;;21.50;99.90;;;;;;10609957;27;20188;-90
2022/07/26 06:06:06;;;;;;;6.10;5.50;;;21.80;99.90;;;;;;10609829;27;20193;-90
2022/07/26 06:11:08;;;;;;;7.82;5.97;;;21.70;99.90;;;;;;10626933;27;20233;-90
2022/07/26 06:16:11;;;;;;;7.65;5.22;;;21.20;99.90;;;;;;10627517;27;20241;-90
2022/07/26 06:21:14;;;;;;;6.05;5.45;;;21.90;99.90;;;;;;10627403;27;20188;-91
2022/07/26 06:26:16;;;;;;;4.68;4.07;;;22.00;99.90;;;;;;10627113;27;20192;-90
2022/07/26 06:31:19;;;;;;;5.85;5.35;;;21.80;99.90;;;;;;10626679;27;20260;-91
2022/07/26 06:36:21;;;;;;;5.57;5.07;;;22.20;99.90;;;;;;10626487;27;20192;-90
2022/07/26 06:41:31;;;;;;;8.52;4.95;;;22.10;99.90;;;;;;10626567;27;20218;-90
2022/07/26 06:46:34;;;;;;;6.03;5.43;;;22.30;99.90;;;;;;10626195;27;20599;-90
2022/07/26 06:51:36;;;;;;;5.55;5.05;;;22.10;99.90;;;;;;10607662;27;20273;-90
2022/07/26 06:56:39;;;;;;;4.60;4.20;;;22.40;99.90;;;;;;10625891;27;20192;-90
2022/07/26 07:01:41;;;;;;;4.55;3.58;;;22.10;99.90;;;;;;10606939;27;20204;-90
2022/07/26 07:07:02;;;;;;;4.88;2.75;;;22.40;99.90;;;;;;10606817;27;20576;-90
2022/07/26 07:12:07;;;;;;;8.20;2.92;;;22.50;99.90;;;;;;10625193;27;20216;-89
2022/07/26 07:17:11;;;;;;;5.25;3.85;;;22.30;99.90;;;;;;10606307;27;20200;-90
2022/07/26 07:22:21;;;;;;;6.03;4.07;;;22.50;99.90;;;;;;10607701;27;20217;-90
2022/07/26 07:27:23;;;;;;;4.82;4.07;;;22.50;99.90;;;;;;10624675;27;20253;-90
2022/07/26 07:32:28;;;;;;;4.22;3.58;;;22.20;99.90;;;;;;10606469;27;20220;-91
2022/07/26 07:37:34;;;;;;;8.50;4.20;;;22.10;99.90;;;;;;10624593;27;20196;-90
2022/07/26 07:42:54;;;;;;;5.65;5.15;;;22.10;99.90;;;;;;10609131;27;20660;-90
2022/07/26 07:47:57;;;;;;;5.70;3.53;;;22.30;99.90;;;;;;10623971;27;20241;-90
2022/07/26 07:52:59;;;;;;;4.90;4.40;;;22.50;99.90;;;;;;10623715;27;20220;-90
2022/07/26 07:58:03;;;;;;;4.97;3.60;;;22.50;99.90;;;;;;10623537;27;20195;-90
2022/07/26 08:03:06;;;;;;;4.95;4.55;;;22.60;99.90;;;;;;10588238;27;20245;-90
2022/07/26 08:08:09;;;;;;;8.05;3.92;;;22.90;99.90;;;;;;10623302;27;20196;-90
2022/07/26 08:13:11;;;;;;;7.40;4.68;;;22.60;99.90;;;;;;10623336;28;20216;-90
2022/07/26 08:18:14;;;;;;;6.85;4.10;;;22.50;99.90;;;;;;10587446;28;20200;-90
2022/07/26 08:23:19;;;;;;;4.72;3.20;;;22.60;99.90;;;;;;10623141;28;20204;-91
2022/07/26 08:28:21;;;;;;;5.18;4.68;;;22.60;99.90;;;;;;10623161;28;20252;-90
2022/07/26 08:33:44;;;;;;;9.77;3.90;;;22.80;99.90;;;;;;10623021;27;20228;-90
2022/07/26 08:38:48;;;;;;;3.63;3.10;;;22.80;99.90;;;;;;10613748;27;20196;-90
2022/07/26 08:43:51;;;;;;;5.50;3.72;;;22.80;99.90;;;;;;10612621;27;20200;-90
2022/07/26 08:48:55;;;;;;;4.82;4.32;;;22.90;99.90;;;;;;10631241;27;20608;-90
2022/07/26 08:53:59;;;;;;;4.68;4.28;;;22.90;99.90;;;;;;10630892;27;20216;-89
2022/07/26 08:59:16;;;;;;;4.85;3.55;;;22.80;99.90;;;;;;10613548;27;20192;-90
2022/07/26 09:04:25;;;;;;;4.55;3.30;;;22.80;99.90;;;;;;10630639;27;20196;-91
2022/07/26 09:09:58;;;;;;;6.10;4.43;;;22.90;99.90;;;;;;10630659;27;20244;-90
2022/07/26 09:15:03;;;;;;;9.63;4.60;;;22.80;99.90;;;;;;10611364;27;20697;-90
2022/07/26 09:20:08;;;;;;;8.85;3.58;;;23.10;99.90;;;;;;10611425;27;20200;-90
2022/07/26 09:25:22;;;;;;;13.95;3.65;;;23.00;99.90;;;;;;10611810;27;20192;-90
2022/07/26 09:30:26;;;;;;;7.13;3.80;;;23.20;99.90;;;;;;10629605;27;20277;-90
2022/07/26 09:35:32;;;;;;;4.25;3.83;;;23.20;99.90;;;;;;10611266;27;20270;-90
2022/07/26 09:40:54;;;;;;;4.45;4.00;;;23.10;99.90;;;;;;10629760;27;20192;-90
2022/07/26 09:46:04;;;;;;;3.28;2.97;;;23.10;99.90;;;;;;10628203;27;20192;-90
2022/07/26 09:51:08;;;;;;;6.55;3.22;;;23.10;99.90;;;;;;10593408;27;20212;-90
2022/07/26 09:56:12;;;;;;;3.13;2.72;;;23.30;99.90;;;;;;10628441;27;20220;-89
2022/07/26 10:01:15;;;;;;;3.65;3.35;;;23.40;99.90;;;;;;10628435;27;20192;-90
2022/07/26 10:06:19;;;;;;;3.58;3.13;;;23.30;99.90;;;;;;10593028;27;20238;-89
2022/07/26 10:11:26;;;;;;;8.30;3.53;;;23.40;99.90;;;;;;10628886;27;20563;-89
2022/07/26 10:16:32;;;;;;;4.50;3.45;;;23.30;99.90;;;;;;10610159;27;20269;-89
2022/07/26 10:21:34;;;;;;;6.85;3.20;;;23.40;99.90;;;;;;10609701;27;20196;-89
2022/07/26 10:26:39;;;;;;;4.10;2.50;;;23.40;99.90;;;;;;10627877;27;20537;-90
2022/07/26 10:31:59;;;;;;;4.63;3.08;;;23.40;99.90;;;;;;10627168;27;20221;-89
2022/07/26 10:37:04;;;;;;;3.75;2.50;;;23.60;99.90;;;;;;10627566;27;20192;-89
2022/07/26 10:42:09;;;;;;;3.80;3.45;;;23.70;99.90;;;;;;10610055;27;20547;-90
2022/07/26 10:47:14;;;;;;;4.95;3.75;;;23.70;99.90;;;;;;10608229;27;20201;-90
2022/07/26 10:52:19;;;;;;;6.63;3.53;;;23.80;99.90;;;;;;10607443;27;20621;-89
2022/07/26 10:57:27;;;;;;;6.43;2.92;;;24.00;99.90;;;;;;10606909;27;20559;-89
2022/07/26 11:02:31;;;;;;;7.60;3.65;;;24.10;99.90;;;;;;10606673;27;20192;-89
2022/07/26 11:08:00;;;;;;;2.70;2.38;;;23.90;99.90;;;;;;10606519;27;20212;-90
2022/07/26 11:13:24;;;;;;;3.40;2.58;;;23.80;99.90;;;;;;10607273;27;20216;-90
2022/07/26 11:18:34;;;;;;;3.72;3.00;;;23.80;99.90;;;;;;10607264;27;20196;-89
2022/07/26 11:23:38;;;;;;;4.13;2.80;;;23.90;99.90;;;;;;10589547;27;20200;-90
2022/07/26 11:28:47;;;;;;;3.75;3.45;;;23.80;99.90;;;;;;10606010;27;20200;-89
2022/07/26 11:33:50;;;;;;;4.20;2.55;;;23.90;99.90;;;;;;10624407;27;20229;-89
2022/07/26 11:38:54;;;;;;;7.57;2.45;;;24.00;99.90;;;;;;10624694;27;20665;-90
2022/07/26 11:43:57;;;;;;;3.97;3.58;;;24.10;99.90;;;;;;10589100;27;20640;-89
2022/07/26 11:49:12;;;;;;;3.42;2.53;;;23.90;99.90;;;;;;10605046;27;20208;-90
2022/07/26 11:54:15;;;;;;;4.00;3.33;;;24.40;99.90;;;;;;10605987;27;20212;-91
2022/07/26 11:59:18;;;;;;;3.10;2.78;;;24.20;99.90;;;;;;10605764;27;20552;-89
2022/07/26 12:04:27;;;;;;;3.47;3.17;;;24.20;99.90;;;;;;10623673;27;20610;-90
2022/07/26 12:09:34;;;;;;;2.97;2.55;;;24.20;99.90;;;;;;10622962;27;20563;-89
2022/07/26 12:14:38;;;;;;;4.35;2.45;;;24.00;99.90;;;;;;10623364;27;20220;-91
2022/07/26 12:19:41;;;;;;;4.18;3.83;;;23.90;99.90;;;;;;10605355;28;20253;-90
2022/07/26 12:24:49;;;;;;;3.50;2.33;;;23.90;99.90;;;;;;10623231;28;20237;-90
2022/07/26 12:30:00;;;;;;;5.05;2.60;;;24.00;99.90;;;;;;10605565;28;20192;-90
2022/07/26 12:35:13;;;;;;;2.00;1.75;;;24.10;99.90;;;;;;10623402;28;20625;-89
2022/07/26 12:40:21;;;;;;;2.47;2.22;;;24.20;99.90;;;;;;10623054;28;20218;-90
2022/07/26 12:45:26;;;;;;;3.63;3.20;;;24.00;99.90;;;;;;10604976;28;20218;-89
2022/07/26 12:50:30;;;;;;;3.30;2.63;;;23.90;99.90;;;;;;10623391;28;20192;-89
2022/07/26 12:55:34;;;;;;;1.50;1.20;;;24.10;99.90;;;;;;10604925;28;20245;-90
2022/07/26 13:00:36;;;;;;;4.15;2.88;;;24.30;99.90;;;;;;10604210;28;20561;-89
2022/07/26 13:05:39;;;;;;;2.88;2.67;;;24.30;99.90;;;;;;10603649;28;20257;-90
2022/07/26 13:10:41;;;;;;;5.82;2.53;;;24.30;99.90;;;;;;10604619;28;20602;-88
2022/07/26 13:15:45;;;;;;;3.97;3.10;;;24.30;99.90;;;;;;10604420;28;20220;-89
2022/07/26 13:20:47;;;;;;;5.28;1.83;;;24.30;99.90;;;;;;10606185;27;20222;-90
2022/07/26 13:25:50;;;;;;;3.78;2.20;;;24.40;99.90;;;;;;10629866;27;20241;-90
2022/07/26 13:30:54;;;;;;;4.35;1.73;;;24.50;99.90;;;;;;10629387;27;20630;-89
2022/07/26 13:35:56;;;;;;;2.13;1.52;;;24.70;99.90;;;;;;10611147;27;20212;-89
2022/07/26 13:41:01;;;;;;;2.85;1.48;;;24.80;99.90;;;;;;10610392;27;20284;-90
2022/07/26 13:46:03;;;;;;;2.40;1.50;;;24.70;99.90;;;;;;10611097;27;20192;-89
2022/07/26 13:51:07;;;;;;;2.65;1.58;;;24.70;99.90;;;;;;10628749;27;20225;-90
2022/07/26 13:56:09;;;;;;;4.03;1.27;;;24.70;99.90;;;;;;10628779;27;20216;-90
2022/07/26 14:01:12;;;;;;;1.55;1.40;;;24.80;99.90;;;;;;10628466;27;20188;-89
2022/07/26 14:06:14;;;;;;;2.28;1.73;;;24.70;99.90;;;;;;10628090;27;20226;-89
2022/07/26 14:11:17;;;;;;;2.85;2.30;;;24.70;99.90;;;;;;10609931;27;20193;-89
2022/07/26 14:16:20;;;;;;;5.95;2.35;;;24.80;99.90;;;;;;10627832;27;20576;-90
2022/07/26 14:21:30;;;;;;;4.47;1.52;;;24.60;99.90;;;;;;10609844;27;20192;-90
2022/07/26 14:26:50;;;;;;;1.55;1.10;;;24.90;99.90;;;;;;10627471;27;20277;-90
2022/07/26 14:32:00;;;;;;;2.70;1.77;;;24.80;99.90;;;;;;10609605;27;20269;-89
2022/07/26 14:37:03;;;;;;;2.10;1.65;;;24.70;99.90;;;;;;10607751;27;20228;-90
2022/07/26 14:42:25;;;;;;;1.98;1.88;;;24.90;99.90;;;;;;10627059;27;20244;-89
2022/07/26 14:47:28;;;;;;;2.13;1.90;;;24.70;99.90;;;;;;10628186;27;20245;-88
2022/07/26 14:52:30;;;;;;;6.47;1.30;;;24.90;99.90;;;;;;10608676;27;20269;-89
2022/07/26 14:57:33;;;;;;;2.60;2.40;;;24.90;99.90;;;;;;10627128;27;20213;-88
2022/07/26 15:02:44;;;;;;;5.05;2.03;;;24.60;99.90;;;;;;10609497;27;20192;-89
2022/07/26 15:07:47;;;;;;;3.33;2.88;;;24.80;99.90;;;;;;10607217;27;20204;-90
2022/07/26 15:12:50;;;;;;;2.50;2.13;;;24.70;99.90;;;;;;10625490;27;20261;-89
2022/07/26 15:17:52;;;;;;;2.50;2.30;;;24.40;99.90;;;;;;10606478;27;20642;-89
2022/07/26 15:22:55;;;;;;;5.20;1.80;;;24.10;99.90;;;;;;10624989;27;20253;-90
2022/07/26 15:27:57;;;;;;;2.30;1.98;;;24.00;99.90;;;;;;10624870;27;20217;-89
2022/07/26 15:33:03;;;;;;;2.42;2.20;;;24.00;99.90;;;;;;10606460;27;20253;-89
2022/07/26 15:38:05;;;;;;;4.88;2.83;;;23.90;99.90;;;;;;10606173;27;20212;-89
2022/07/26 15:43:08;;;;;;;3.90;2.55;;;24.00;99.90;;;;;;10624311;27;20244;-89
2022/07/26 15:48:11;;;;;;;4.22;1.48;;;24.20;99.90;;;;;;10606401;27;20532;-90
2022/07/26 15:53:22;;;;;;;2.42;2.13;;;24.20;99.90;;;;;;10605332;27;20256;-89
2022/07/26 15:58:25;;;;;;;2.45;1.60;;;24.00;99.90;;;;;;10605173;27;20192;-90
2022/07/26 16:03:28;;;;;;;2.00;1.80;;;23.90;99.90;;;;;;10623892;27;20237;-89
2022/07/26 16:08:30;;;;;;;3.25;2.03;;;23.80;99.90;;;;;;10623955;27;20192;-90
2022/07/26 16:13:33;;;;;;;2.88;2.30;;;24.00;99.90;;;;;;10604833;27;20204;-90
2022/07/26 16:18:35;;;;;;;3.22;1.70;;;24.30;99.90;;;;;;10623493;28;20192;-89
2022/07/26 16:23:43;;;;;;;2.05;1.95;;;24.20;99.90;;;;;;10604936;28;20208;-90
2022/07/26 16:28:46;;;;;;;2.55;1.48;;;24.10;99.90;;;;;;10604952;28;20215;-90
2022/07/26 16:33:48;;;;;;;1.45;1.35;;;24.10;99.90;;;;;;10605020;28;20257;-90
2022/07/26 16:38:51;;;;;;;5.38;1.10;;;23.80;99.90;;;;;;10604887;28;20222;-90
2022/07/26 16:43:54;;;;;;;2.95;1.58;;;23.70;99.90;;;;;;10623018;28;20218;-89
2022/07/26 16:48:56;;;;;;;6.25;1.67;;;23.60;99.90;;;;;;10604005;28;20650;-90
2022/07/26 16:53:59;;;;;;;2.03;1.83;;;23.60;99.90;;;;;;10604850;28;20204;-89
2022/07/26 16:59:02;;;;;;;1.80;1.63;;;23.50;99.90;;;;;;10611818;27;20214;-89
2022/07/26 17:04:09;;;;;;;2.95;2.63;;;23.40;99.90;;;;;;10630908;27;20605;-90
2022/07/26 17:09:11;;;;;;;1.50;1.15;;;23.30;99.90;;;;;;10612971;27;20221;-89
2022/07/26 17:14:16;;;;;;;6.55;1.67;;;23.20;99.90;;;;;;10630700;27;20641;-90
2022/07/26 17:19:19;;;;;;;3.10;2.38;;;23.10;99.90;;;;;;10630317;27;20196;-89
2022/07/26 17:24:21;;;;;;;4.20;2.00;;;22.90;99.90;;;;;;10630296;27;20197;-89
2022/07/26 17:29:24;;;;;;;3.13;1.30;;;22.70;99.90;;;;;;10630470;27;20192;-90
2022/07/26 17:34:27;;;;;;;2.65;2.00;;;22.50;99.90;;;;;;10612145;27;20269;-90
2022/07/26 17:39:29;;;;;;;2.25;1.98;;;22.40;99.90;;;;;;10630091;27;20193;-91
2022/07/26 17:44:52;;;;;;;2.90;2.55;;;22.30;99.90;;;;;;10632135;27;20225;-92
2022/07/26 17:49:54;;;;;;;3.92;2.28;;;22.10;99.90;;;;;;10610696;27;20204;-90
2022/07/26 17:55:00;;;;;;;3.95;2.25;;;22.10;99.90;;;;;;10610347;27;20671;-90
2022/07/26 18:00:04;;;;;;;2.60;2.40;;;22.00;99.90;;;;;;10610085;27;20257;-90
2022/07/26 18:05:09;;;;;;;3.88;2.08;;;22.10;99.90;;;;;;10610600;27;20200;-90
2022/07/26 18:10:13;;;;;;;2.42;1.88;;;22.00;99.90;;;;;;10626925;27;20564;-90
2022/07/26 18:15:15;;;;;;;3.08;1.58;;;21.80;99.90;;;;;;10628148;27;20204;-89
2022/07/26 18:20:18;;;;;;;2.58;2.38;;;21.90;99.90;;;;;;10627793;27;20196;-89
2022/07/26 18:25:20;;;;;;;1.70;1.60;;;22.10;99.90;;;;;;10627793;27;20258;-89
2022/07/26 18:30:23;;;;;;;2.58;2.25;;;22.10;99.90;;;;;;10627226;27;20626;-88
2022/07/26 18:35:26;;;;;;;2.45;2.20;;;21.90;99.90;;;;;;10627371;27;20208;-89
2022/07/26 18:40:29;;;;;;;2.00;1.67;;;22.00;99.90;;;;;;10609124;27;20192;-90
2022/07/26 18:45:31;;;;;;;3.50;2.70;;;21.90;99.90;;;;;;10608992;27;20573;-89
2022/07/26 18:50:34;;;;;;;2.67;1.95;;;22.00;99.90;;;;;;10626523;27;20196;-89
2022/07/26 18:55:37;;;;;;;2.35;2.15;;;21.80;99.90;;;;;;10626465;27;20277;-90
2022/07/26 19:00:40;;;;;;;2.35;1.73;;;21.90;99.90;;;;;;10626550;27;20249;-89
2022/07/26 19:05:42;;;;;;;2.60;2.38;;;21.70;99.90;;;;;;10626444;27;20201;-89
2022/07/26 19:10:45;;;;;;;2.60;1.58;;;21.70;99.90;;;;;;10607878;27;20609;-89
2022/07/26 19:15:47;;;;;;;2.58;2.25;;;21.60;99.90;;;;;;10607307;27;20632;-90
2022/07/26 19:20:50;;;;;;;2.05;1.95;;;21.50;99.90;;;;;;10614157;27;20237;-89
2022/07/26 19:25:52;;;;;;;2.42;2.20;;;21.70;99.90;;;;;;10627850;27;20253;-90
2022/07/26 19:30:55;;;;;;;2.53;2.33;;;21.90;99.90;;;;;;10626265;27;20228;-91
2022/07/26 19:35:57;;;;;;;4.45;2.05;;;21.80;99.90;;;;;;10624794;27;20257;-90
2022/07/26 19:41:00;;;;;;;3.13;2.28;;;21.80;99.90;;;;;;10624764;27;20196;-90
2022/07/26 19:46:03;;;;;;;2.75;2.20;;;21.60;99.90;;;;;;10624807;27;20218;-89
2022/07/26 19:51:05;;;;;;;1.70;1.60;;;21.70;99.90;;;;;;10606252;27;20244;-89
2022/07/26 19:56:08;;;;;;;4.53;1.90;;;21.40;99.90;;;;;;10606140;27;20212;-90
2022/07/26 20:01:10;;;;;;;2.35;2.15;;;21.30;99.90;;;;;;10606564;27;20219;-89
2022/07/26 20:06:13;;;;;;;2.53;2.33;;;21.50;99.90;;;;;;10605449;27;20204;-89
2022/07/26 20:11:21;;;;;;;2.58;2.38;;;21.70;99.90;;;;;;10623859;27;20222;-89
2022/07/26 20:16:24;;;;;;;1.83;1.70;;;21.60;99.90;;;;;;10623801;27;20273;-89
2022/07/26 20:21:26;;;;;;;2.58;2.38;;;21.40;99.90;;;;;;10623535;28;20608;-89
2022/07/26 20:26:29;;;;;;;3.40;2.30;;;21.50;99.90;;;;;;10605367;28;20245;-89
2022/07/26 20:31:33;;;;;;;3.08;2.88;;;21.60;99.90;;;;;;10607623;27;20261;-89
2022/07/26 20:36:35;;;;;;;3.13;2.50;;;21.60;99.90;;;;;;10613516;27;20204;-89
2022/07/26 20:41:38;;;;;;;2.08;1.90;;;21.90;99.90;;;;;;10631752;27;20213;-89
2022/07/26 20:46:40;;;;;;;2.13;2.03;;;22.00;99.90;;;;;;10632273;27;20235;-89
2022/07/26 20:51:43;;;;;;;2.40;2.30;;;22.00;99.90;;;;;;10612472;27;20587;-89
2022/07/26 20:56:45;;;;;;;2.65;2.45;;;22.10;99.90;;;;;;10612935;27;20212;-88
2022/07/26 21:01:48;;;;;;;2.75;2.55;;;22.10;99.90;;;;;;10631323;27;20188;-89
2022/07/26 21:06:50;;;;;;;2.40;2.20;;;21.90;99.90;;;;;;10630720;27;20230;-89
2022/07/26 21:11:53;;;;;;;2.08;1.98;;;22.00;99.90;;;;;;10594899;27;20200;-88
2022/07/26 21:16:56;;;;;;;7.95;2.45;;;22.00;99.90;;;;;;10595167;27;20568;-88
2022/07/26 21:21:59;;;;;;;2.30;2.10;;;21.70;99.90;;;;;;10611939;27;20204;-89
2022/07/26 21:27:03;;;;;;;3.45;2.70;;;21.70;99.90;;;;;;10630555;27;20188;-88
2022/07/26 21:32:06;;;;;;;2.53;2.30;;;21.70;99.90;;;;;;10630260;27;20246;-88
2022/07/26 21:37:08;;;;;;;2.42;2.22;;;21.80;99.90;;;;;;10630251;27;20624;-88
2022/07/26 21:42:11;;;;;;;3.20;2.92;;;21.90;99.90;;;;;;10611252;27;20220;-89
2022/07/26 21:47:13;;;;;;;2.45;2.25;;;21.60;99.90;;;;;;10611508;27;20192;-88
2022/07/26 21:52:16;;;;;;;2.78;2.58;;;21.70;99.90;;;;;;10629110;27;20249;-88
2022/07/26 21:57:19;;;;;;;3.63;2.40;;;21.70;99.90;;;;;;10629650;27;20220;-89
2022/07/26 22:02:23;;;;;;;2.60;2.40;;;21.90;99.90;;;;;;10628899;27;20257;-89
2022/07/26 22:07:31;;;;;;;3.17;2.50;;;21.70;99.90;;;;;;10611491;27;20591;-89
2022/07/26 22:12:34;;;;;;;2.60;2.40;;;21.90;99.90;;;;;;10610348;27;20245;-89
2022/07/26 22:17:39;;;;;;;2.78;2.53;;;22.00;99.90;;;;;;10628082;27;20269;-89
2022/07/26 22:22:42;;;;;;;2.53;2.30;;;22.00;99.90;;;;;;10628059;27;20627;-89
2022/07/26 22:27:44;;;;;;;2.38;2.17;;;22.00;99.90;;;;;;10628557;27;20188;-89
2022/07/26 22:32:47;;;;;;;3.03;2.53;;;22.00;99.90;;;;;;10609639;27;20277;-89
2022/07/26 22:37:50;;;;;;;2.47;2.28;;;22.00;99.90;;;;;;10628031;27;20580;-89
2022/07/26 22:42:57;;;;;;;3.08;2.15;;;21.90;99.90;;;;;;10627267;27;20541;-89
2022/07/26 22:48:01;;;;;;;2.83;2.30;;;22.00;99.90;;;;;;10627435;27;20200;-89
2022/07/26 22:53:04;;;;;;;2.30;2.10;;;22.00;99.90;;;;;;10626021;27;20205;-90
2022/07/26 22:58:06;;;;;;;2.28;2.13;;;22.00;99.90;;;;;;10607622;27;20228;-89
2022/07/26 23:03:09;;;;;;;2.33;2.13;;;22.00;99.90;;;;;;10626419;27;20620;-89
2022/07/26 23:08:21;;;;;;;2.03;1.92;;;22.10;99.90;;;;;;10609216;27;20620;-89
2022/07/26 23:13:44;;;;;;;2.83;2.15;;;22.10;99.90;;;;;;10593103;27;20212;-89
2022/07/26 23:18:46;;;;;;;2.58;2.38;;;22.10;99.90;;;;;;10607330;27;20621;-89
2022/07/26 23:23:48;;;;;;;2.78;2.03;;;22.10;99.90;;;;;;10606468;27;20234;-89
2022/07/26 23:28:51;;;;;;;2.38;2.17;;;22.10;99.90;;;;;;10607564;27;20269;-89
2022/07/26 23:33:54;;;;;;;2.03;1.92;;;22.10;99.90;;;;;;10625085;27;20223;-89
2022/07/26 23:38:58;;;;;;;2.50;2.25;;;22.10;99.90;;;;;;10625427;27;20215;-89
2022/07/26 23:44:00;;;;;;;2.60;2.40;;;22.10;99.90;;;;;;10605931;27;20616;-89
2022/07/26 23:49:03;;;;;;;2.25;2.05;;;22.10;99.90;;;;;;10605672;27;20196;-89
2022/07/26 23:54:06;;;;;;;2.53;2.33;;;22.00;99.90;;;;;;10605270;27;20200;-89
2022/07/26 23:59:08;;;;;;;2.10;2.00;;;22.00;99.90;;;;;;10624571;27;20288;-89
